PWSweather.com
Personal Weather Stations
Station Observations
ILOMBARD30
LodiIT 26900

LodiIT 26900

Lat: 45.2993, Lon: 9.5207

Elevation: 255

Station Type: Davis Vantege Pro2 Plus 24h

http://www.meteo-iw2gob.it

High Low Average
Temperature 59.6°F15.3°C 37.8°F3.2°C 49.0°F9.4°C
Dew Point 37.5°F3.1°C 30.2°F-1.0°C 32.3°F0.2°C
Winds 6.9 mph 11.1 kmh Calm Calm 2.0 mph SSE3.2 kmh SSE
Wind Gusts 9.2 mph14.8 kmh -- 3.0 mph4.8 kmh
Humidity 77% 34% 54%
Pressure 30.51 in1033.2 mb 30.38 in1028.8 mb -
Precipitation 0.00 in0.0 mm - -
Hour Temp Dew Point Humidity Winds Wind Gusts Pressure Precip Precip Rate Daily Precip Total
12:00 AM 41.6°F5.3°C 31.1°F-0.5°C 66% 2.3 mph SE3.7 kmh SE 3.5 mph5.6 kmh 30.46 in1031.5 mb - 0.00 in0.0 mm 0.00 in0.0 mm
12:05 AM 41.6°F5.3°C 30.3°F-0.9°C 64% 2.3 mph SE3.7 kmh SE 3.5 mph5.6 kmh 30.45 in1031.2 mb - 0.00 in0.0 mm 0.00 in0.0 mm
12:10 AM 41.6°F5.3°C 30.3°F-0.9°C 64% 2.3 mph SE3.7 kmh SE 3.5 mph5.6 kmh 30.45 in1031.2 mb - 0.00 in0.0 mm 0.00 in0.0 mm
12:15 AM 41.6°F5.3°C 30.3°F-0.9°C 64% 2.3 mph SE3.7 kmh SE 3.5 mph5.6 kmh 30.46 in1031.5 mb - 0.00 in0.0 mm 0.00 in0.0 mm
12:20 AM 41.7°F5.4°C 30.4°F-0.9°C 64% 2.3 mph SE3.7 kmh SE 3.5 mph5.6 kmh 30.46 in1031.5 mb - 0.00 in0.0 mm 0.00 in0.0 mm
12:25 AM 41.7°F5.4°C 31.2°F-0.4°C 66% 2.3 mph E3.7 kmh E 3.5 mph5.6 kmh 30.46 in1031.5 mb - 0.00 in0.0 mm 0.00 in0.0 mm
12:30 AM 41.6°F5.3°C 31.1°F-0.5°C 66% 2.3 mph NE3.7 kmh NE 3.5 mph5.6 kmh 30.46 in1031.5 mb - 0.00 in0.0 mm 0.00 in0.0 mm
12:35 AM 41.5°F5.3°C 30.6°F-0.8°C 65% 2.3 mph NE3.7 kmh NE 3.5 mph5.6 kmh 30.46 in1031.5 mb - 0.00 in0.0 mm 0.00 in0.0 mm
12:40 AM 41.3°F5.2°C 30.4°F-0.9°C 65% 2.3 mph NE3.7 kmh NE 3.5 mph5.6 kmh 30.46 in1031.5 mb - 0.00 in0.0 mm 0.00 in0.0 mm
12:45 AM 41.3°F5.2°C 30.4°F-0.9°C 65% 3.5 mph NE5.6 kmh NE 3.5 mph5.6 kmh 30.46 in1031.5 mb - 0.00 in0.0 mm 0.00 in0.0 mm
12:50 AM 41.3°F5.2°C 30.8°F-0.7°C 66% 2.3 mph NNE3.7 kmh NNE 3.5 mph5.6 kmh 30.46 in1031.5 mb - 0.00 in0.0 mm 0.00 in0.0 mm
12:55 AM 41.3°F5.2°C 30.8°F-0.7°C 66% 2.3 mph NNE3.7 kmh NNE 3.5 mph5.6 kmh 30.47 in1031.8 mb - 0.00 in0.0 mm 0.00 in0.0 mm
01:00 AM 41.3°F5.2°C 30.8°F-0.7°C 66% 2.3 mph NNE3.7 kmh NNE 3.5 mph5.6 kmh 30.47 in1031.8 mb - 0.00 in0.0 mm 0.00 in0.0 mm
01:05 AM 41.3°F5.2°C 30.4°F-0.9°C 65% 2.3 mph NNE3.7 kmh NNE 2.3 mph3.7 kmh 30.47 in1031.8 mb - 0.00 in0.0 mm 0.00 in0.0 mm
01:10 AM 41.2°F5.1°C 30.3°F-0.9°C 65% 2.3 mph NNE3.7 kmh NNE 3.5 mph5.6 kmh 30.47 in1031.8 mb - 0.00 in0.0 mm 0.00 in0.0 mm
01:15 AM 41.2°F5.1°C 30.3°F-0.9°C 65% 2.3 mph NNE3.7 kmh NNE 2.3 mph3.7 kmh 30.47 in1031.8 mb - 0.00 in0.0 mm 0.00 in0.0 mm
01:20 AM 41.2°F5.1°C 30.3°F-0.9°C 65% 2.3 mph NNE3.7 kmh NNE 2.3 mph3.7 kmh 30.47 in1031.8 mb - 0.00 in0.0 mm 0.00 in0.0 mm
01:25 AM 41.2°F5.1°C 30.3°F-0.9°C 65% 2.3 mph NNE3.7 kmh NNE 3.5 mph5.6 kmh 30.47 in1031.8 mb - 0.00 in0.0 mm 0.00 in0.0 mm
01:30 AM 41.1°F5.1°C 30.2°F-1.0°C 65% 2.3 mph NNE3.7 kmh NNE 3.5 mph5.6 kmh 30.48 in1032.2 mb - 0.00 in0.0 mm 0.00 in0.0 mm
01:35 AM 41.0°F5.0°C 30.5°F-0.8°C 66% 2.3 mph NNE3.7 kmh NNE 3.5 mph5.6 kmh 30.48 in1032.2 mb - 0.00 in0.0 mm 0.00 in0.0 mm
01:40 AM 40.9°F4.9°C 30.4°F-0.9°C 66% 2.3 mph NNE3.7 kmh NNE 3.5 mph5.6 kmh 30.47 in1031.8 mb - 0.00 in0.0 mm 0.00 in0.0 mm
01:45 AM 40.9°F4.9°C 30.8°F-0.7°C 67% 2.3 mph NNE3.7 kmh NNE 2.3 mph3.7 kmh 30.47 in1031.8 mb - 0.00 in0.0 mm 0.00 in0.0 mm
01:50 AM 40.9°F4.9°C 30.8°F-0.7°C 67% 1.2 mph NNE1.9 kmh NNE 2.3 mph3.7 kmh 30.47 in1031.8 mb - 0.00 in0.0 mm 0.00 in0.0 mm
01:55 AM 40.8°F4.9°C 30.7°F-0.7°C 67% 2.3 mph NNE3.7 kmh NNE 2.3 mph3.7 kmh 30.47 in1031.8 mb - 0.00 in0.0 mm 0.00 in0.0 mm
02:00 AM 40.9°F4.9°C 30.8°F-0.7°C 67% 1.2 mph NNE1.9 kmh NNE 2.3 mph3.7 kmh 30.47 in1031.8 mb - 0.00 in0.0 mm 0.00 in0.0 mm
02:05 AM 41.0°F5.0°C 30.5°F-0.8°C 66% 2.3 mph NNE3.7 kmh NNE 3.5 mph5.6 kmh 30.47 in1031.8 mb - 0.00 in0.0 mm 0.00 in0.0 mm
02:10 AM 41.0°F5.0°C 30.5°F-0.8°C 66% 1.2 mph NNE1.9 kmh NNE 2.3 mph3.7 kmh 30.47 in1031.8 mb - 0.00 in0.0 mm 0.00 in0.0 mm
02:15 AM 41.1°F5.1°C 30.6°F-0.8°C 66% 1.2 mph NE1.9 kmh NE 2.3 mph3.7 kmh 30.47 in1031.8 mb - 0.00 in0.0 mm 0.00 in0.0 mm
02:20 AM 41.3°F5.2°C 30.8°F-0.7°C 66% 1.2 mph NE1.9 kmh NE 3.5 mph5.6 kmh 30.47 in1031.8 mb - 0.00 in0.0 mm 0.00 in0.0 mm
02:25 AM 41.5°F5.3°C 30.6°F-0.8°C 65% 1.2 mph NE1.9 kmh NE 2.3 mph3.7 kmh 30.47 in1031.8 mb - 0.00 in0.0 mm 0.00 in0.0 mm
02:30 AM 41.6°F5.3°C 30.7°F-0.7°C 65% 1.2 mph NE1.9 kmh NE 3.5 mph5.6 kmh 30.47 in1031.8 mb - 0.00 in0.0 mm 0.00 in0.0 mm
02:35 AM 41.7°F5.4°C 30.8°F-0.7°C 65% 2.3 mph NE3.7 kmh NE 3.5 mph5.6 kmh 30.46 in1031.5 mb - 0.00 in0.0 mm 0.00 in0.0 mm
02:40 AM 41.7°F5.4°C 30.8°F-0.7°C 65% 1.2 mph NE1.9 kmh NE 2.3 mph3.7 kmh 30.46 in1031.5 mb - 0.00 in0.0 mm 0.00 in0.0 mm
02:45 AM 41.6°F5.3°C 30.7°F-0.7°C 65% 1.2 mph NE1.9 kmh NE 2.3 mph3.7 kmh 30.46 in1031.5 mb - 0.00 in0.0 mm 0.00 in0.0 mm
02:50 AM 41.5°F5.3°C 30.6°F-0.8°C 65% 1.2 mph NE1.9 kmh NE 2.3 mph3.7 kmh 30.46 in1031.5 mb - 0.00 in0.0 mm 0.00 in0.0 mm
02:55 AM 41.4°F5.2°C 30.9°F-0.6°C 66% 1.2 mph NE1.9 kmh NE 2.3 mph3.7 kmh 30.46 in1031.5 mb - 0.00 in0.0 mm 0.00 in0.0 mm
03:00 AM 41.2°F5.1°C 31.1°F-0.5°C 67% 1.2 mph NE1.9 kmh NE 2.3 mph3.7 kmh 30.46 in1031.5 mb - 0.00 in0.0 mm 0.00 in0.0 mm
03:05 AM 41.0°F5.0°C 30.5°F-0.8°C 66% 1.2 mph NE1.9 kmh NE 2.3 mph3.7 kmh 30.46 in1031.5 mb - 0.00 in0.0 mm 0.00 in0.0 mm
03:10 AM 40.8°F4.9°C 30.3°F-0.9°C 66% 2.3 mph NE3.7 kmh NE 3.5 mph5.6 kmh 30.46 in1031.5 mb - 0.00 in0.0 mm 0.00 in0.0 mm
03:15 AM 40.7°F4.8°C 30.6°F-0.8°C 67% 2.3 mph NE3.7 kmh NE 3.5 mph5.6 kmh 30.46 in1031.5 mb - 0.00 in0.0 mm 0.00 in0.0 mm
03:20 AM 40.6°F4.8°C 30.9°F-0.6°C 68% 2.3 mph N3.7 kmh N 3.5 mph5.6 kmh 30.46 in1031.5 mb - 0.00 in0.0 mm 0.00 in0.0 mm
03:25 AM 40.5°F4.7°C 31.5°F-0.3°C 70% 2.3 mph N3.7 kmh N 3.5 mph5.6 kmh 30.46 in1031.5 mb - 0.00 in0.0 mm 0.00 in0.0 mm
03:30 AM 40.4°F4.7°C 31.4°F-0.3°C 70% 3.5 mph N5.6 kmh N 3.5 mph5.6 kmh 30.46 in1031.5 mb - 0.00 in0.0 mm 0.00 in0.0 mm
03:35 AM 40.2°F4.6°C 31.2°F-0.4°C 70% 2.3 mph N3.7 kmh N 3.5 mph5.6 kmh 30.46 in1031.5 mb - 0.00 in0.0 mm 0.00 in0.0 mm
03:40 AM 40.1°F4.5°C 30.7°F-0.7°C 69% 2.3 mph N3.7 kmh N 3.5 mph5.6 kmh 30.46 in1031.5 mb - 0.00 in0.0 mm 0.00 in0.0 mm
03:45 AM 40.0°F4.4°C 30.6°F-0.8°C 69% 2.3 mph N3.7 kmh N 3.5 mph5.6 kmh 30.46 in1031.5 mb - 0.00 in0.0 mm 0.00 in0.0 mm
03:50 AM 39.9°F4.4°C 30.5°F-0.8°C 69% 2.3 mph N3.7 kmh N 3.5 mph5.6 kmh 30.46 in1031.5 mb - 0.00 in0.0 mm 0.00 in0.0 mm
03:55 AM 39.8°F4.3°C 30.5°F-0.8°C 69% 2.3 mph N3.7 kmh N 2.3 mph3.7 kmh 30.46 in1031.5 mb - 0.00 in0.0 mm 0.00 in0.0 mm
04:00 AM 39.7°F4.3°C 30.4°F-0.9°C 69% 2.3 mph N3.7 kmh N 3.5 mph5.6 kmh 30.45 in1031.2 mb - 0.00 in0.0 mm 0.00 in0.0 mm
04:05 AM 39.7°F4.3°C 30.7°F-0.7°C 70% 2.3 mph N3.7 kmh N 3.5 mph5.6 kmh 30.45 in1031.2 mb - 0.00 in0.0 mm 0.00 in0.0 mm
04:10 AM 39.7°F4.3°C 30.7°F-0.7°C 70% 2.3 mph N3.7 kmh N 3.5 mph5.6 kmh 30.45 in1031.2 mb - 0.00 in0.0 mm 0.00 in0.0 mm
04:15 AM 39.7°F4.3°C 30.7°F-0.7°C 70% 2.3 mph N3.7 kmh N 3.5 mph5.6 kmh 30.46 in1031.5 mb - 0.00 in0.0 mm 0.00 in0.0 mm
04:20 AM 39.7°F4.3°C 30.7°F-0.7°C 70% 2.3 mph N3.7 kmh N 3.5 mph5.6 kmh 30.46 in1031.5 mb - 0.00 in0.0 mm 0.00 in0.0 mm
04:25 AM 39.6°F4.2°C 30.6°F-0.8°C 70% 2.3 mph N3.7 kmh N 2.3 mph3.7 kmh 30.46 in1031.5 mb - 0.00 in0.0 mm 0.00 in0.0 mm
04:30 AM 39.5°F4.2°C 30.5°F-0.8°C 70% 2.3 mph N3.7 kmh N 3.5 mph5.6 kmh 30.46 in1031.5 mb - 0.00 in0.0 mm 0.00 in0.0 mm
04:35 AM 39.4°F4.1°C 30.8°F-0.7°C 71% 2.3 mph N3.7 kmh N 3.5 mph5.6 kmh 30.46 in1031.5 mb - 0.00 in0.0 mm 0.00 in0.0 mm
04:40 AM 39.3°F4.1°C 30.7°F-0.7°C 71% 2.3 mph N3.7 kmh N 3.5 mph5.6 kmh 30.46 in1031.5 mb - 0.00 in0.0 mm 0.00 in0.0 mm
04:45 AM 39.1°F3.9°C 30.8°F-0.7°C 72% 2.3 mph NNE3.7 kmh NNE 3.5 mph5.6 kmh 30.46 in1031.5 mb - 0.00 in0.0 mm 0.00 in0.0 mm
04:50 AM 39.0°F3.9°C 30.7°F-0.7°C 72% 3.5 mph N5.6 kmh N 3.5 mph5.6 kmh 30.46 in1031.5 mb - 0.00 in0.0 mm 0.00 in0.0 mm
04:55 AM 39.0°F3.9°C 31.1°F-0.5°C 73% 3.5 mph N5.6 kmh N 3.5 mph5.6 kmh 30.46 in1031.5 mb - 0.00 in0.0 mm 0.00 in0.0 mm
05:00 AM 38.9°F3.8°C 31.0°F-0.6°C 73% 2.3 mph N3.7 kmh N 3.5 mph5.6 kmh 30.47 in1031.8 mb - 0.00 in0.0 mm 0.00 in0.0 mm
05:05 AM 38.9°F3.8°C 31.0°F-0.6°C 73% 2.3 mph N3.7 kmh N 3.5 mph5.6 kmh 30.47 in1031.8 mb - 0.00 in0.0 mm 0.00 in0.0 mm
05:10 AM 38.9°F3.8°C 31.0°F-0.6°C 73% 2.3 mph N3.7 kmh N 2.3 mph3.7 kmh 30.47 in1031.8 mb - 0.00 in0.0 mm 0.00 in0.0 mm
05:15 AM 38.9°F3.8°C 31.0°F-0.6°C 73% 2.3 mph N3.7 kmh N 2.3 mph3.7 kmh 30.47 in1031.8 mb - 0.00 in0.0 mm 0.00 in0.0 mm
05:20 AM 38.8°F3.8°C 30.9°F-0.6°C 73% 1.2 mph N1.9 kmh N 2.3 mph3.7 kmh 30.47 in1031.8 mb - 0.00 in0.0 mm 0.00 in0.0 mm
05:25 AM 38.8°F3.8°C 31.2°F-0.4°C 74% 2.3 mph N3.7 kmh N 3.5 mph5.6 kmh 30.47 in1031.8 mb - 0.00 in0.0 mm 0.00 in0.0 mm
05:30 AM 38.7°F3.7°C 31.1°F-0.5°C 74% 2.3 mph N3.7 kmh N 3.5 mph5.6 kmh 30.47 in1031.8 mb - 0.00 in0.0 mm 0.00 in0.0 mm
05:35 AM 38.6°F3.7°C 31.1°F-0.5°C 74% 2.3 mph N3.7 kmh N 3.5 mph5.6 kmh 30.47 in1031.8 mb - 0.00 in0.0 mm 0.00 in0.0 mm
05:40 AM 38.6°F3.7°C 31.0°F-0.6°C 74% 2.3 mph N3.7 kmh N 3.5 mph5.6 kmh 30.47 in1031.8 mb - 0.00 in0.0 mm 0.00 in0.0 mm
05:45 AM 38.5°F3.6°C 30.9°F-0.6°C 74% 1.2 mph N1.9 kmh N 2.3 mph3.7 kmh 30.46 in1031.5 mb - 0.00 in0.0 mm 0.00 in0.0 mm
05:50 AM 38.4°F3.6°C 31.2°F-0.4°C 75% 2.3 mph N3.7 kmh N 2.3 mph3.7 kmh 30.46 in1031.5 mb - 0.00 in0.0 mm 0.00 in0.0 mm
05:55 AM 38.3°F3.5°C 31.1°F-0.5°C 75% 2.3 mph N3.7 kmh N 2.3 mph3.7 kmh 30.46 in1031.5 mb - 0.00 in0.0 mm 0.00 in0.0 mm
06:00 AM 38.3°F3.5°C 31.1°F-0.5°C 75% 2.3 mph N3.7 kmh N 2.3 mph3.7 kmh 30.46 in1031.5 mb - 0.00 in0.0 mm 0.00 in0.0 mm
06:05 AM 38.3°F3.5°C 31.0°F-0.6°C 75% 2.3 mph N3.7 kmh N 3.5 mph5.6 kmh 30.47 in1031.8 mb - 0.00 in0.0 mm 0.00 in0.0 mm
06:10 AM 38.2°F3.4°C 31.0°F-0.6°C 75% 2.3 mph N3.7 kmh N 2.3 mph3.7 kmh 30.47 in1031.8 mb - 0.00 in0.0 mm 0.00 in0.0 mm
06:15 AM 38.1°F3.4°C 30.9°F-0.6°C 75% 2.3 mph N3.7 kmh N 2.3 mph3.7 kmh 30.47 in1031.8 mb - 0.00 in0.0 mm 0.00 in0.0 mm
06:20 AM 38.1°F3.4°C 30.9°F-0.6°C 75% 1.2 mph N1.9 kmh N 2.3 mph3.7 kmh 30.47 in1031.8 mb - 0.00 in0.0 mm 0.00 in0.0 mm
06:25 AM 38.0°F3.3°C 30.8°F-0.7°C 75% 1.2 mph N1.9 kmh N 2.3 mph3.7 kmh 30.48 in1032.2 mb - 0.00 in0.0 mm 0.00 in0.0 mm
06:30 AM 37.9°F3.3°C 31.0°F-0.6°C 76% 1.2 mph N1.9 kmh N 1.2 mph1.9 kmh 30.48 in1032.2 mb - 0.00 in0.0 mm 0.00 in0.0 mm
06:35 AM 37.8°F3.2°C 30.9°F-0.6°C 76% 1.2 mph N1.9 kmh N 2.3 mph3.7 kmh 30.48 in1032.2 mb - 0.00 in0.0 mm 0.00 in0.0 mm
06:40 AM 37.8°F3.2°C 30.9°F-0.6°C 76% 1.2 mph N1.9 kmh N 2.3 mph3.7 kmh 30.48 in1032.2 mb - 0.00 in0.0 mm 0.00 in0.0 mm
06:45 AM 37.8°F3.2°C 30.9°F-0.6°C 76% 1.2 mph N1.9 kmh N 2.3 mph3.7 kmh 30.48 in1032.2 mb - 0.00 in0.0 mm 0.00 in0.0 mm
06:50 AM 37.8°F3.2°C 30.9°F-0.6°C 76% 1.2 mph N1.9 kmh N 2.3 mph3.7 kmh 30.49 in1032.5 mb - 0.00 in0.0 mm 0.00 in0.0 mm
06:55 AM 37.8°F3.2°C 31.2°F-0.4°C 77% 2.3 mph N3.7 kmh N 2.3 mph3.7 kmh 30.49 in1032.5 mb - 0.00 in0.0 mm 0.00 in0.0 mm
07:00 AM 37.9°F3.3°C 31.0°F-0.6°C 76% 2.3 mph N3.7 kmh N 3.5 mph5.6 kmh 30.49 in1032.5 mb - 0.00 in0.0 mm 0.00 in0.0 mm
07:05 AM 38.1°F3.4°C 31.2°F-0.4°C 76% 2.3 mph N3.7 kmh N 3.5 mph5.6 kmh 30.49 in1032.5 mb - 0.00 in0.0 mm 0.00 in0.0 mm
07:10 AM 38.4°F3.6°C 31.4°F-0.3°C 76% 1.2 mph N1.9 kmh N 3.5 mph5.6 kmh 30.49 in1032.5 mb - 0.00 in0.0 mm 0.00 in0.0 mm
07:15 AM 38.7°F3.7°C 31.5°F-0.3°C 75% 3.5 mph NNW5.6 kmh NNW 3.5 mph5.6 kmh 30.49 in1032.5 mb - 0.00 in0.0 mm 0.00 in0.0 mm
07:20 AM 39.0°F3.9°C 31.8°F-0.1°C 75% 1.2 mph NNW1.9 kmh NNW 1.2 mph1.9 kmh 30.50 in1032.8 mb - 0.00 in0.0 mm 0.00 in0.0 mm
07:25 AM 39.7°F4.3°C 31.7°F-0.2°C 73% 3.5 mph NNW5.6 kmh NNW 3.5 mph5.6 kmh 30.50 in1032.8 mb - 0.00 in0.0 mm 0.00 in0.0 mm
07:30 AM 40.0°F4.4°C 31.7°F-0.2°C 72% 1.2 mph NNW1.9 kmh NNW 2.3 mph3.7 kmh 30.50 in1032.8 mb - 0.00 in0.0 mm 0.00 in0.0 mm
07:35 AM 40.2°F4.6°C 31.6°F-0.2°C 71% 2.3 mph NNW3.7 kmh NNW 3.5 mph5.6 kmh 30.50 in1032.8 mb - 0.00 in0.0 mm 0.00 in0.0 mm
07:40 AM 40.6°F4.8°C 32.0°F0.0°C 71% 2.3 mph NNW3.7 kmh NNW 2.3 mph3.7 kmh 30.50 in1032.8 mb - 0.00 in0.0 mm 0.00 in0.0 mm
07:45 AM 41.1°F5.1°C 32.0°F0.0°C 70% Calm Calm 1.2 mph1.9 kmh 30.50 in1032.8 mb - 0.00 in0.0 mm 0.00 in0.0 mm
07:50 AM 41.4°F5.2°C 32.0°F0.0°C 69% 2.3 mph N3.7 kmh N 3.5 mph5.6 kmh 30.50 in1032.8 mb - 0.00 in0.0 mm 0.00 in0.0 mm
07:55 AM 41.5°F5.3°C 31.7°F-0.2°C 68% 2.3 mph NNW3.7 kmh NNW 3.5 mph5.6 kmh 30.50 in1032.8 mb - 0.00 in0.0 mm 0.00 in0.0 mm
08:00 AM 41.8°F5.4°C 32.3°F0.2°C 69% 1.2 mph NNW1.9 kmh NNW 3.5 mph5.6 kmh 30.50 in1032.8 mb - 0.00 in0.0 mm 0.00 in0.0 mm
08:05 AM 41.8°F5.4°C 32.4°F0.2°C 69% 4.6 mph N7.4 kmh N 4.6 mph7.4 kmh 30.51 in1033.2 mb - 0.00 in0.0 mm 0.00 in0.0 mm
08:10 AM 41.9°F5.5°C 32.8°F0.4°C 70% 2.3 mph NNW3.7 kmh NNW 3.5 mph5.6 kmh 30.51 in1033.2 mb - 0.00 in0.0 mm 0.00 in0.0 mm
08:15 AM 42.1°F5.6°C 32.3°F0.2°C 68% 4.6 mph NNW7.4 kmh NNW 4.6 mph7.4 kmh 30.51 in1033.2 mb - 0.00 in0.0 mm 0.00 in0.0 mm
08:20 AM 42.2°F5.7°C 32.8°F0.4°C 69% 3.5 mph NNW5.6 kmh NNW 4.6 mph7.4 kmh 30.51 in1033.2 mb - 0.00 in0.0 mm 0.00 in0.0 mm
08:25 AM 42.4°F5.8°C 32.6°F0.3°C 68% 3.5 mph NNW5.6 kmh NNW 3.5 mph5.6 kmh 30.51 in1033.2 mb - 0.00 in0.0 mm 0.00 in0.0 mm
08:30 AM 42.6°F5.9°C 32.8°F0.4°C 68% 3.5 mph NNW5.6 kmh NNW 3.5 mph5.6 kmh 30.50 in1032.8 mb - 0.00 in0.0 mm 0.00 in0.0 mm
08:35 AM 42.9°F6.1°C 33.5°F0.8°C 69% 3.5 mph NNW5.6 kmh NNW 3.5 mph5.6 kmh 30.51 in1033.2 mb - 0.00 in0.0 mm 0.00 in0.0 mm
08:40 AM 43.3°F6.3°C 33.1°F0.6°C 67% 3.5 mph NNW5.6 kmh NNW 3.5 mph5.6 kmh 30.51 in1033.2 mb - 0.00 in0.0 mm 0.00 in0.0 mm
08:45 AM 43.7°F6.5°C 33.5°F0.8°C 67% 2.3 mph N3.7 kmh N 3.5 mph5.6 kmh 30.51 in1033.2 mb - 0.00 in0.0 mm 0.00 in0.0 mm
08:50 AM 44.6°F7.0°C 33.9°F1.1°C 66% Calm Calm -- 30.51 in1033.2 mb - 0.00 in0.0 mm 0.00 in0.0 mm
08:55 AM 45.2°F7.3°C 34.1°F1.2°C 65% 1.2 mph N1.9 kmh N 2.3 mph3.7 kmh 30.51 in1033.2 mb - 0.00 in0.0 mm 0.00 in0.0 mm
09:00 AM 45.6°F7.6°C 34.5°F1.4°C 65% 1.2 mph N1.9 kmh N 3.5 mph5.6 kmh 30.51 in1033.2 mb - 0.00 in0.0 mm 0.00 in0.0 mm
09:05 AM 46.0°F7.8°C 34.5°F1.4°C 64% 1.2 mph N1.9 kmh N 2.3 mph3.7 kmh 30.51 in1033.2 mb - 0.00 in0.0 mm 0.00 in0.0 mm
09:10 AM 46.5°F8.1°C 34.2°F1.2°C 62% 2.3 mph N3.7 kmh N 2.3 mph3.7 kmh 30.51 in1033.2 mb - 0.00 in0.0 mm 0.00 in0.0 mm
09:15 AM 47.4°F8.6°C 35.0°F1.7°C 62% 1.2 mph N1.9 kmh N 2.3 mph3.7 kmh 30.51 in1033.2 mb - 0.00 in0.0 mm 0.00 in0.0 mm
09:20 AM 48.1°F8.9°C 35.3°F1.8°C 61% Calm Calm 1.2 mph1.9 kmh 30.51 in1033.2 mb - 0.00 in0.0 mm 0.00 in0.0 mm
09:25 AM 48.6°F9.2°C 34.5°F1.4°C 58% 1.2 mph N1.9 kmh N 2.3 mph3.7 kmh 30.51 in1033.2 mb - 0.00 in0.0 mm 0.00 in0.0 mm
09:30 AM 48.8°F9.3°C 32.9°F0.5°C 54% 2.3 mph SSE3.7 kmh SSE 3.5 mph5.6 kmh 30.51 in1033.2 mb - 0.00 in0.0 mm 0.00 in0.0 mm
09:35 AM 49.1°F9.5°C 32.7°F0.4°C 53% 1.2 mph SSE1.9 kmh SSE 2.3 mph3.7 kmh 30.51 in1033.2 mb - 0.00 in0.0 mm 0.00 in0.0 mm
09:40 AM 49.9°F9.9°C 33.9°F1.1°C 54% 1.2 mph SSE1.9 kmh SSE 3.5 mph5.6 kmh 30.51 in1033.2 mb - 0.00 in0.0 mm 0.00 in0.0 mm
09:45 AM 50.0°F10.0°C 34.0°F1.1°C 54% 2.3 mph WSW3.7 kmh WSW 3.5 mph5.6 kmh 30.51 in1033.2 mb - 0.00 in0.0 mm 0.00 in0.0 mm
09:50 AM 50.2°F10.1°C 33.7°F0.9°C 53% 2.3 mph WSW3.7 kmh WSW 3.5 mph5.6 kmh 30.51 in1033.2 mb - 0.00 in0.0 mm 0.00 in0.0 mm
09:55 AM 50.3°F10.2°C 33.3°F0.7°C 52% 2.3 mph WSW3.7 kmh WSW 3.5 mph5.6 kmh 30.51 in1033.2 mb - 0.00 in0.0 mm 0.00 in0.0 mm
10:00 AM 51.0°F10.6°C 33.0°F0.6°C 50% 3.5 mph NW5.6 kmh NW 3.5 mph5.6 kmh 30.51 in1033.2 mb - 0.00 in0.0 mm 0.00 in0.0 mm
10:05 AM 50.5°F10.3°C 33.1°F0.6°C 51% 2.3 mph NW3.7 kmh NW 3.5 mph5.6 kmh 30.51 in1033.2 mb - 0.00 in0.0 mm 0.00 in0.0 mm
10:10 AM 51.0°F10.6°C 32.5°F0.3°C 49% 1.2 mph WSW1.9 kmh WSW 1.2 mph1.9 kmh 30.51 in1033.2 mb - 0.00 in0.0 mm 0.00 in0.0 mm
10:15 AM 51.8°F11.0°C 32.7°F0.4°C 48% Calm Calm 3.5 mph5.6 kmh 30.51 in1033.2 mb - 0.00 in0.0 mm 0.00 in0.0 mm
10:20 AM 52.1°F11.2°C 33.0°F0.6°C 48% 1.2 mph SSW1.9 kmh SSW 3.5 mph5.6 kmh 30.51 in1033.2 mb - 0.00 in0.0 mm 0.00 in0.0 mm
10:25 AM 52.1°F11.2°C 32.4°F0.2°C 47% 3.5 mph NW5.6 kmh NW 5.8 mph9.3 kmh 30.51 in1033.2 mb - 0.00 in0.0 mm 0.00 in0.0 mm
10:30 AM 51.8°F11.0°C 32.2°F0.1°C 47% 2.3 mph S3.7 kmh S 4.6 mph7.4 kmh 30.51 in1033.2 mb - 0.00 in0.0 mm 0.00 in0.0 mm
10:35 AM 52.1°F11.2°C 32.5°F0.3°C 47% 4.6 mph SW7.4 kmh SW 4.6 mph7.4 kmh 30.51 in1033.2 mb - 0.00 in0.0 mm 0.00 in0.0 mm
10:40 AM 52.4°F11.3°C 32.2°F0.1°C 46% 4.6 mph SW7.4 kmh SW 5.8 mph9.3 kmh 30.51 in1033.2 mb - 0.00 in0.0 mm 0.00 in0.0 mm
10:45 AM 52.6°F11.4°C 32.4°F0.2°C 46% 3.5 mph WSW5.6 kmh WSW 3.5 mph5.6 kmh 30.51 in1033.2 mb - 0.00 in0.0 mm 0.00 in0.0 mm
10:50 AM 52.8°F11.6°C 32.0°F0.0°C 45% 4.6 mph WSW7.4 kmh WSW 6.9 mph11.1 kmh 30.51 in1033.2 mb - 0.00 in0.0 mm 0.00 in0.0 mm
10:55 AM 52.8°F11.6°C 32.5°F0.3°C 46% 3.5 mph SW5.6 kmh SW 6.9 mph11.1 kmh 30.50 in1032.8 mb - 0.00 in0.0 mm 0.00 in0.0 mm
11:00 AM 52.9°F11.6°C 32.1°F0.1°C 45% 4.6 mph WSW7.4 kmh WSW 5.8 mph9.3 kmh 30.50 in1032.8 mb - 0.00 in0.0 mm 0.00 in0.0 mm
11:05 AM 53.4°F11.9°C 33.2°F0.7°C 46% 1.2 mph W1.9 kmh W 2.3 mph3.7 kmh 30.50 in1032.8 mb - 0.00 in0.0 mm 0.00 in0.0 mm
11:10 AM 54.1°F12.3°C 32.7°F0.4°C 44% 1.2 mph SSE1.9 kmh SSE 2.3 mph3.7 kmh 30.50 in1032.8 mb - 0.00 in0.0 mm 0.00 in0.0 mm
11:15 AM 54.1°F12.3°C 32.6°F0.3°C 44% 4.6 mph WSW7.4 kmh WSW 5.8 mph9.3 kmh 30.50 in1032.8 mb - 0.00 in0.0 mm 0.00 in0.0 mm
11:20 AM 53.9°F12.2°C 32.4°F0.2°C 44% 2.3 mph SW3.7 kmh SW 2.3 mph3.7 kmh 30.50 in1032.8 mb - 0.00 in0.0 mm 0.00 in0.0 mm
11:25 AM 53.8°F12.1°C 32.4°F0.2°C 44% 3.5 mph SW5.6 kmh SW 3.5 mph5.6 kmh 30.50 in1032.8 mb - 0.00 in0.0 mm 0.00 in0.0 mm
11:30 AM 54.3°F12.4°C 31.7°F-0.2°C 42% 2.3 mph NW3.7 kmh NW 3.5 mph5.6 kmh 30.50 in1032.8 mb - 0.00 in0.0 mm 0.00 in0.0 mm
11:35 AM 54.0°F12.2°C 32.0°F0.0°C 43% 4.6 mph N7.4 kmh N 5.8 mph9.3 kmh 30.50 in1032.8 mb - 0.00 in0.0 mm 0.00 in0.0 mm
11:40 AM 53.8°F12.1°C 31.2°F-0.4°C 42% 2.3 mph NW3.7 kmh NW 2.3 mph3.7 kmh 30.50 in1032.8 mb - 0.00 in0.0 mm 0.00 in0.0 mm
11:45 AM 54.0°F12.2°C 31.4°F-0.3°C 42% 3.5 mph WSW5.6 kmh WSW 3.5 mph5.6 kmh 30.50 in1032.8 mb - 0.00 in0.0 mm 0.00 in0.0 mm
11:50 AM 54.4°F12.4°C 31.8°F-0.1°C 42% 5.8 mph N9.3 kmh N 8.1 mph13.0 kmh 30.50 in1032.8 mb - 0.00 in0.0 mm 0.00 in0.0 mm
11:55 AM 54.2°F12.3°C 32.2°F0.1°C 43% 2.3 mph NNW3.7 kmh NNW 9.2 mph14.8 kmh 30.49 in1032.5 mb - 0.00 in0.0 mm 0.00 in0.0 mm
12:00 PM 54.5°F12.5°C 31.3°F-0.4°C 41% 4.6 mph WNW7.4 kmh WNW 5.8 mph9.3 kmh 30.49 in1032.5 mb - 0.00 in0.0 mm 0.00 in0.0 mm
12:05 PM 54.7°F12.6°C 31.4°F-0.3°C 41% 4.6 mph W7.4 kmh W 4.6 mph7.4 kmh 30.49 in1032.5 mb - 0.00 in0.0 mm 0.00 in0.0 mm
12:10 PM 54.6°F12.6°C 31.4°F-0.3°C 41% 5.8 mph NW9.3 kmh NW 5.8 mph9.3 kmh 30.49 in1032.5 mb - 0.00 in0.0 mm 0.00 in0.0 mm
12:15 PM 54.7°F12.6°C 31.4°F-0.3°C 41% 4.6 mph WNW7.4 kmh WNW 4.6 mph7.4 kmh 30.49 in1032.5 mb - 0.00 in0.0 mm 0.00 in0.0 mm
12:20 PM 54.9°F12.7°C 31.6°F-0.2°C 41% 2.3 mph N3.7 kmh N 3.5 mph5.6 kmh 30.49 in1032.5 mb - 0.00 in0.0 mm 0.00 in0.0 mm
12:25 PM 54.9°F12.7°C 31.0°F-0.6°C 40% Calm Calm 1.2 mph1.9 kmh 30.48 in1032.2 mb - 0.00 in0.0 mm 0.00 in0.0 mm
12:30 PM 55.4°F13.0°C 31.4°F-0.3°C 40% 2.3 mph N3.7 kmh N 2.3 mph3.7 kmh 30.48 in1032.2 mb - 0.00 in0.0 mm 0.00 in0.0 mm
12:35 PM 56.7°F13.7°C 31.4°F-0.3°C 38% 4.6 mph WSW7.4 kmh WSW 5.8 mph9.3 kmh 30.47 in1031.8 mb - 0.00 in0.0 mm 0.00 in0.0 mm
12:40 PM 56.0°F13.3°C 32.6°F0.3°C 41% 5.8 mph N9.3 kmh N 6.9 mph11.1 kmh 30.47 in1031.8 mb - 0.00 in0.0 mm 0.00 in0.0 mm
12:45 PM 55.7°F13.2°C 31.1°F-0.5°C 39% 2.3 mph W3.7 kmh W 3.5 mph5.6 kmh 30.47 in1031.8 mb - 0.00 in0.0 mm 0.00 in0.0 mm
12:50 PM 56.8°F13.8°C 31.5°F-0.3°C 38% 2.3 mph E3.7 kmh E 4.6 mph7.4 kmh 30.47 in1031.8 mb - 0.00 in0.0 mm 0.00 in0.0 mm
12:55 PM 56.9°F13.8°C 31.5°F-0.3°C 38% 3.5 mph N5.6 kmh N 9.2 mph14.8 kmh 30.47 in1031.8 mb - 0.00 in0.0 mm 0.00 in0.0 mm
01:00 PM 56.3°F13.5°C 30.3°F-0.9°C 37% 3.5 mph NNE5.6 kmh NNE 3.5 mph5.6 kmh 30.47 in1031.8 mb - 0.00 in0.0 mm 0.00 in0.0 mm
01:05 PM 56.4°F13.6°C 30.4°F-0.9°C 37% 2.3 mph SW3.7 kmh SW 3.5 mph5.6 kmh 30.46 in1031.5 mb - 0.00 in0.0 mm 0.00 in0.0 mm
01:10 PM 56.8°F13.8°C 31.4°F-0.3°C 38% 2.3 mph ENE3.7 kmh ENE 3.5 mph5.6 kmh 30.46 in1031.5 mb - 0.00 in0.0 mm 0.00 in0.0 mm
01:15 PM 56.4°F13.6°C 31.1°F-0.5°C 38% 5.8 mph N9.3 kmh N 6.9 mph11.1 kmh 30.46 in1031.5 mb - 0.00 in0.0 mm 0.00 in0.0 mm
01:20 PM 56.7°F13.7°C 30.7°F-0.7°C 37% 3.5 mph ENE5.6 kmh ENE 3.5 mph5.6 kmh 30.46 in1031.5 mb - 0.00 in0.0 mm 0.00 in0.0 mm
01:25 PM 57.3°F14.1°C 31.2°F-0.4°C 37% 2.3 mph S3.7 kmh S 3.5 mph5.6 kmh 30.45 in1031.2 mb - 0.00 in0.0 mm 0.00 in0.0 mm
01:30 PM 57.9°F14.4°C 31.1°F-0.5°C 36% 3.5 mph ESE5.6 kmh ESE 3.5 mph5.6 kmh 30.45 in1031.2 mb - 0.00 in0.0 mm 0.00 in0.0 mm
01:35 PM 57.4°F14.1°C 31.4°F-0.3°C 37% 1.2 mph SE1.9 kmh SE 3.5 mph5.6 kmh 30.45 in1031.2 mb - 0.00 in0.0 mm 0.00 in0.0 mm
01:40 PM 57.4°F14.1°C 31.3°F-0.4°C 37% 1.2 mph ESE1.9 kmh ESE 2.3 mph3.7 kmh 30.44 in1030.8 mb - 0.00 in0.0 mm 0.00 in0.0 mm
01:45 PM 58.1°F14.5°C 31.2°F-0.4°C 36% 1.2 mph SSE1.9 kmh SSE 3.5 mph5.6 kmh 30.45 in1031.2 mb - 0.00 in0.0 mm 0.00 in0.0 mm
01:50 PM 58.6°F14.8°C 31.7°F-0.2°C 36% 3.5 mph WSW5.6 kmh WSW 3.5 mph5.6 kmh 30.44 in1030.8 mb - 0.00 in0.0 mm 0.00 in0.0 mm
01:55 PM 58.3°F14.6°C 31.5°F-0.3°C 36% 4.6 mph WSW7.4 kmh WSW 6.9 mph11.1 kmh 30.44 in1030.8 mb - 0.00 in0.0 mm 0.00 in0.0 mm
02:00 PM 58.0°F14.4°C 31.2°F-0.4°C 36% 2.3 mph WSW3.7 kmh WSW 3.5 mph5.6 kmh 30.44 in1030.8 mb - 0.00 in0.0 mm 0.00 in0.0 mm
02:05 PM 58.4°F14.7°C 31.5°F-0.3°C 36% 3.5 mph S5.6 kmh S 4.6 mph7.4 kmh 30.43 in1030.5 mb - 0.00 in0.0 mm 0.00 in0.0 mm
02:10 PM 58.2°F14.6°C 31.4°F-0.3°C 36% 1.2 mph SSE1.9 kmh SSE 2.3 mph3.7 kmh 30.43 in1030.5 mb - 0.00 in0.0 mm 0.00 in0.0 mm
02:15 PM 58.2°F14.6°C 32.0°F0.0°C 37% 1.2 mph SSE1.9 kmh SSE 2.3 mph3.7 kmh 30.43 in1030.5 mb - 0.00 in0.0 mm 0.00 in0.0 mm
02:20 PM 59.0°F15.0°C 32.7°F0.4°C 37% 3.5 mph ENE5.6 kmh ENE 3.5 mph5.6 kmh 30.43 in1030.5 mb - 0.00 in0.0 mm 0.00 in0.0 mm
02:25 PM 58.8°F14.9°C 31.2°F-0.4°C 35% 3.5 mph NNE5.6 kmh NNE 4.6 mph7.4 kmh 30.43 in1030.5 mb - 0.00 in0.0 mm 0.00 in0.0 mm
02:30 PM 58.2°F14.6°C 32.0°F0.0°C 37% 3.5 mph SE5.6 kmh SE 5.8 mph9.3 kmh 30.43 in1030.5 mb - 0.00 in0.0 mm 0.00 in0.0 mm
02:35 PM 58.3°F14.6°C 32.1°F0.1°C 37% 2.3 mph SE3.7 kmh SE 5.8 mph9.3 kmh 30.42 in1030.1 mb - 0.00 in0.0 mm 0.00 in0.0 mm
02:40 PM 59.0°F15.0°C 32.0°F0.0°C 36% 5.8 mph SE9.3 kmh SE 8.1 mph13.0 kmh 30.42 in1030.1 mb - 0.00 in0.0 mm 0.00 in0.0 mm
02:45 PM 58.4°F14.7°C 31.5°F-0.3°C 36% 4.6 mph SE7.4 kmh SE 6.9 mph11.1 kmh 30.42 in1030.1 mb - 0.00 in0.0 mm 0.00 in0.0 mm
02:50 PM 58.1°F14.5°C 30.6°F-0.8°C 35% 3.5 mph SE5.6 kmh SE 4.6 mph7.4 kmh 30.42 in1030.1 mb - 0.00 in0.0 mm 0.00 in0.0 mm
02:55 PM 58.6°F14.8°C 31.7°F-0.2°C 36% 2.3 mph SSE3.7 kmh SSE 3.5 mph5.6 kmh 30.41 in1029.8 mb - 0.00 in0.0 mm 0.00 in0.0 mm
03:00 PM 58.8°F14.9°C 31.2°F-0.4°C 35% 2.3 mph SE3.7 kmh SE 3.5 mph5.6 kmh 30.41 in1029.8 mb - 0.00 in0.0 mm 0.00 in0.0 mm
03:05 PM 59.2°F15.1°C 32.3°F0.2°C 36% 5.8 mph ESE9.3 kmh ESE 8.1 mph13.0 kmh 30.41 in1029.8 mb - 0.00 in0.0 mm 0.00 in0.0 mm
03:10 PM 59.2°F15.1°C 30.8°F-0.7°C 34% 4.6 mph ESE7.4 kmh ESE 4.6 mph7.4 kmh 30.41 in1029.8 mb - 0.00 in0.0 mm 0.00 in0.0 mm
03:15 PM 59.2°F15.1°C 31.5°F-0.3°C 35% 3.5 mph E5.6 kmh E 9.2 mph14.8 kmh 30.41 in1029.8 mb - 0.00 in0.0 mm 0.00 in0.0 mm
03:20 PM 59.3°F15.2°C 31.6°F-0.2°C 35% 4.6 mph SE7.4 kmh SE 3.5 mph5.6 kmh 30.41 in1029.8 mb - 0.00 in0.0 mm 0.00 in0.0 mm
03:25 PM 59.3°F15.2°C 31.6°F-0.2°C 35% 2.3 mph ESE3.7 kmh ESE 2.3 mph3.7 kmh 30.41 in1029.8 mb - 0.00 in0.0 mm 0.00 in0.0 mm
03:30 PM 59.6°F15.3°C 31.9°F-0.1°C 35% 3.5 mph ESE5.6 kmh ESE 4.6 mph7.4 kmh 30.41 in1029.8 mb - 0.00 in0.0 mm 0.00 in0.0 mm
03:35 PM 59.1°F15.1°C 30.7°F-0.7°C 34% 1.2 mph E1.9 kmh E 2.3 mph3.7 kmh 30.40 in1029.5 mb - 0.00 in0.0 mm 0.00 in0.0 mm
03:40 PM 59.1°F15.1°C 30.7°F-0.7°C 34% 2.3 mph NE3.7 kmh NE 3.5 mph5.6 kmh 30.40 in1029.5 mb - 0.00 in0.0 mm 0.00 in0.0 mm
03:45 PM 59.5°F15.3°C 31.8°F-0.1°C 35% 2.3 mph ESE3.7 kmh ESE 3.5 mph5.6 kmh 30.40 in1029.5 mb - 0.00 in0.0 mm 0.00 in0.0 mm
03:50 PM 59.5°F15.3°C 32.5°F0.3°C 36% 5.8 mph SE9.3 kmh SE 8.1 mph13.0 kmh 30.39 in1029.1 mb - 0.00 in0.0 mm 0.00 in0.0 mm
03:55 PM 59.0°F15.0°C 32.1°F0.1°C 36% 6.9 mph ESE11.1 kmh ESE 8.1 mph13.0 kmh 30.39 in1029.1 mb - 0.00 in0.0 mm 0.00 in0.0 mm
04:00 PM 58.9°F14.9°C 32.0°F0.0°C 36% 2.3 mph SE3.7 kmh SE 3.5 mph5.6 kmh 30.39 in1029.1 mb - 0.00 in0.0 mm 0.00 in0.0 mm
04:05 PM 58.7°F14.8°C 31.8°F-0.1°C 36% 2.3 mph ESE3.7 kmh ESE 3.5 mph5.6 kmh 30.39 in1029.1 mb - 0.00 in0.0 mm 0.00 in0.0 mm
04:10 PM 59.1°F15.1°C 31.4°F-0.3°C 35% 2.3 mph E3.7 kmh E 3.5 mph5.6 kmh 30.39 in1029.1 mb - 0.00 in0.0 mm 0.00 in0.0 mm
04:15 PM 59.0°F15.0°C 32.1°F0.1°C 36% 1.2 mph SE1.9 kmh SE 2.3 mph3.7 kmh 30.39 in1029.1 mb - 0.00 in0.0 mm 0.00 in0.0 mm
04:20 PM 59.5°F15.3°C 31.8°F-0.1°C 35% 1.2 mph S1.9 kmh S 3.5 mph5.6 kmh 30.38 in1028.8 mb - 0.00 in0.0 mm 0.00 in0.0 mm
04:25 PM 59.3°F15.2°C 32.3°F0.2°C 36% 6.9 mph E11.1 kmh E 8.1 mph13.0 kmh 30.39 in1029.1 mb - 0.00 in0.0 mm 0.00 in0.0 mm
04:30 PM 59.1°F15.1°C 31.4°F-0.3°C 35% 2.3 mph E3.7 kmh E 6.9 mph11.1 kmh 30.39 in1029.1 mb - 0.00 in0.0 mm 0.00 in0.0 mm
04:35 PM 59.0°F15.0°C 32.1°F0.1°C 36% 4.6 mph ESE7.4 kmh ESE 4.6 mph7.4 kmh 30.38 in1028.8 mb - 0.00 in0.0 mm 0.00 in0.0 mm
04:40 PM 58.9°F14.9°C 32.0°F0.0°C 36% 2.3 mph E3.7 kmh E 6.9 mph11.1 kmh 30.39 in1029.1 mb - 0.00 in0.0 mm 0.00 in0.0 mm
04:45 PM 59.0°F15.0°C 32.0°F0.0°C 36% 1.2 mph ENE1.9 kmh ENE 2.3 mph3.7 kmh 30.38 in1028.8 mb - 0.00 in0.0 mm 0.00 in0.0 mm
04:50 PM 59.1°F15.1°C 32.2°F0.1°C 36% 1.2 mph ENE1.9 kmh ENE 1.2 mph1.9 kmh 30.38 in1028.8 mb - 0.00 in0.0 mm 0.00 in0.0 mm
04:55 PM 59.3°F15.2°C 32.3°F0.2°C 36% 2.3 mph SE3.7 kmh SE 5.8 mph9.3 kmh 30.38 in1028.8 mb - 0.00 in0.0 mm 0.00 in0.0 mm
05:00 PM 59.0°F15.0°C 32.1°F0.1°C 36% 1.2 mph SE1.9 kmh SE 3.5 mph5.6 kmh 30.38 in1028.8 mb - 0.00 in0.0 mm 0.00 in0.0 mm
05:05 PM 58.9°F14.9°C 31.9°F-0.1°C 36% 1.2 mph SE1.9 kmh SE 2.3 mph3.7 kmh 30.38 in1028.8 mb - 0.00 in0.0 mm 0.00 in0.0 mm
05:10 PM 58.9°F14.9°C 32.7°F0.4°C 37% 4.6 mph ESE7.4 kmh ESE 6.9 mph11.1 kmh 30.38 in1028.8 mb - 0.00 in0.0 mm 0.00 in0.0 mm
05:15 PM 58.7°F14.8°C 32.5°F0.3°C 37% 3.5 mph SE5.6 kmh SE 3.5 mph5.6 kmh 30.38 in1028.8 mb - 0.00 in0.0 mm 0.00 in0.0 mm
05:20 PM 58.4°F14.7°C 32.2°F0.1°C 37% 3.5 mph SE5.6 kmh SE 5.8 mph9.3 kmh 30.38 in1028.8 mb - 0.00 in0.0 mm 0.00 in0.0 mm
05:25 PM 58.4°F14.7°C 32.9°F0.5°C 38% 3.5 mph SE5.6 kmh SE 4.6 mph7.4 kmh 30.38 in1028.8 mb - 0.00 in0.0 mm 0.00 in0.0 mm
05:30 PM 58.4°F14.7°C 32.2°F0.1°C 37% 3.5 mph SE5.6 kmh SE 4.6 mph7.4 kmh 30.38 in1028.8 mb - 0.00 in0.0 mm 0.00 in0.0 mm
05:35 PM 58.2°F14.6°C 32.0°F0.0°C 37% 2.3 mph SE3.7 kmh SE 3.5 mph5.6 kmh 30.38 in1028.8 mb - 0.00 in0.0 mm 0.00 in0.0 mm
05:40 PM 58.1°F14.5°C 32.6°F0.3°C 38% 2.3 mph SE3.7 kmh SE 4.6 mph7.4 kmh 30.38 in1028.8 mb - 0.00 in0.0 mm 0.00 in0.0 mm
05:45 PM 58.1°F14.5°C 32.6°F0.3°C 38% 3.5 mph SE5.6 kmh SE 3.5 mph5.6 kmh 30.38 in1028.8 mb - 0.00 in0.0 mm 0.00 in0.0 mm
05:50 PM 58.0°F14.4°C 32.5°F0.3°C 38% 3.5 mph SE5.6 kmh SE 3.5 mph5.6 kmh 30.38 in1028.8 mb - 0.00 in0.0 mm 0.00 in0.0 mm
05:55 PM 57.9°F14.4°C 33.1°F0.6°C 39% 3.5 mph SE5.6 kmh SE 3.5 mph5.6 kmh 30.38 in1028.8 mb - 0.00 in0.0 mm 0.00 in0.0 mm
06:00 PM 57.7°F14.3°C 33.5°F0.8°C 40% 2.3 mph SE3.7 kmh SE 3.5 mph5.6 kmh 30.38 in1028.8 mb - 0.00 in0.0 mm 0.00 in0.0 mm
06:05 PM 57.6°F14.2°C 32.8°F0.4°C 39% 4.6 mph SE7.4 kmh SE 4.6 mph7.4 kmh 30.38 in1028.8 mb - 0.00 in0.0 mm 0.00 in0.0 mm
06:10 PM 57.5°F14.2°C 33.3°F0.7°C 40% 4.6 mph SE7.4 kmh SE 5.8 mph9.3 kmh 30.38 in1028.8 mb - 0.00 in0.0 mm 0.00 in0.0 mm
06:15 PM 57.2°F14.0°C 33.1°F0.6°C 40% 3.5 mph SE5.6 kmh SE 3.5 mph5.6 kmh 30.38 in1028.8 mb - 0.00 in0.0 mm 0.00 in0.0 mm
06:20 PM 57.1°F13.9°C 33.6°F0.9°C 41% 3.5 mph SE5.6 kmh SE 3.5 mph5.6 kmh 30.38 in1028.8 mb - 0.00 in0.0 mm 0.00 in0.0 mm
06:25 PM 56.9°F13.8°C 33.5°F0.8°C 41% 2.3 mph SE3.7 kmh SE 3.5 mph5.6 kmh 30.38 in1028.8 mb - 0.00 in0.0 mm 0.00 in0.0 mm
06:30 PM 56.8°F13.8°C 33.3°F0.7°C 41% 1.2 mph SE1.9 kmh SE 2.3 mph3.7 kmh 30.38 in1028.8 mb - 0.00 in0.0 mm 0.00 in0.0 mm
06:35 PM 56.6°F13.7°C 33.2°F0.7°C 41% 1.2 mph SE1.9 kmh SE 1.2 mph1.9 kmh 30.38 in1028.8 mb - 0.00 in0.0 mm 0.00 in0.0 mm
06:40 PM 56.5°F13.6°C 33.7°F0.9°C 42% 1.2 mph SE1.9 kmh SE 1.2 mph1.9 kmh 30.39 in1029.1 mb - 0.00 in0.0 mm 0.00 in0.0 mm
06:45 PM 56.4°F13.6°C 33.6°F0.9°C 42% 1.2 mph SE1.9 kmh SE 2.3 mph3.7 kmh 30.39 in1029.1 mb - 0.00 in0.0 mm 0.00 in0.0 mm
06:50 PM 56.2°F13.4°C 33.4°F0.8°C 42% 1.2 mph SE1.9 kmh SE 1.2 mph1.9 kmh 30.39 in1029.1 mb - 0.00 in0.0 mm 0.00 in0.0 mm
06:55 PM 56.1°F13.4°C 33.9°F1.1°C 43% 1.2 mph SE1.9 kmh SE 2.3 mph3.7 kmh 30.39 in1029.1 mb - 0.00 in0.0 mm 0.00 in0.0 mm
07:00 PM 55.9°F13.3°C 33.7°F0.9°C 43% 1.2 mph SE1.9 kmh SE 2.3 mph3.7 kmh 30.39 in1029.1 mb - 0.00 in0.0 mm 0.00 in0.0 mm
07:05 PM 55.8°F13.2°C 33.6°F0.9°C 43% 1.2 mph SE1.9 kmh SE 2.3 mph3.7 kmh 30.39 in1029.1 mb - 0.00 in0.0 mm 0.00 in0.0 mm
07:10 PM 55.6°F13.1°C 33.4°F0.8°C 43% 1.2 mph SE1.9 kmh SE 1.2 mph1.9 kmh 30.39 in1029.1 mb - 0.00 in0.0 mm 0.00 in0.0 mm
07:15 PM 55.4°F13.0°C 33.8°F1.0°C 44% 1.2 mph SE1.9 kmh SE 3.5 mph5.6 kmh 30.39 in1029.1 mb - 0.00 in0.0 mm 0.00 in0.0 mm
07:20 PM 55.1°F12.8°C 33.6°F0.9°C 44% 1.2 mph SE1.9 kmh SE 2.3 mph3.7 kmh 30.39 in1029.1 mb - 0.00 in0.0 mm 0.00 in0.0 mm
07:25 PM 54.9°F12.7°C 34.0°F1.1°C 45% 1.2 mph SE1.9 kmh SE 2.3 mph3.7 kmh 30.39 in1029.1 mb - 0.00 in0.0 mm 0.00 in0.0 mm
07:30 PM 54.7°F12.6°C 33.8°F1.0°C 45% 1.2 mph SE1.9 kmh SE 2.3 mph3.7 kmh 30.39 in1029.1 mb - 0.00 in0.0 mm 0.00 in0.0 mm
07:35 PM 54.5°F12.5°C 34.1°F1.2°C 46% 1.2 mph SE1.9 kmh SE 2.3 mph3.7 kmh 30.39 in1029.1 mb - 0.00 in0.0 mm 0.00 in0.0 mm
07:40 PM 54.2°F12.3°C 33.9°F1.1°C 46% 1.2 mph SE1.9 kmh SE 2.3 mph3.7 kmh 30.39 in1029.1 mb - 0.00 in0.0 mm 0.00 in0.0 mm
07:45 PM 54.1°F12.3°C 33.8°F1.0°C 46% 1.2 mph SE1.9 kmh SE 2.3 mph3.7 kmh 30.40 in1029.5 mb - 0.00 in0.0 mm 0.00 in0.0 mm
07:50 PM 54.0°F12.2°C 34.2°F1.2°C 47% 1.2 mph SE1.9 kmh SE 2.3 mph3.7 kmh 30.40 in1029.5 mb - 0.00 in0.0 mm 0.00 in0.0 mm
07:55 PM 53.9°F12.2°C 34.1°F1.2°C 47% 1.2 mph SE1.9 kmh SE 2.3 mph3.7 kmh 30.40 in1029.5 mb - 0.00 in0.0 mm 0.00 in0.0 mm
08:00 PM 53.9°F12.2°C 33.6°F0.9°C 46% 1.2 mph SE1.9 kmh SE 2.3 mph3.7 kmh 30.40 in1029.5 mb - 0.00 in0.0 mm 0.00 in0.0 mm
08:05 PM 53.8°F12.1°C 34.0°F1.1°C 47% 2.3 mph SE3.7 kmh SE 2.3 mph3.7 kmh 30.40 in1029.5 mb - 0.00 in0.0 mm 0.00 in0.0 mm
08:10 PM 53.7°F12.1°C 33.4°F0.8°C 46% 2.3 mph SE3.7 kmh SE 2.3 mph3.7 kmh 30.40 in1029.5 mb - 0.00 in0.0 mm 0.00 in0.0 mm
08:15 PM 53.5°F11.9°C 33.8°F1.0°C 47% 1.2 mph SE1.9 kmh SE 2.3 mph3.7 kmh 30.40 in1029.5 mb - 0.00 in0.0 mm 0.00 in0.0 mm
08:20 PM 53.4°F11.9°C 33.7°F0.9°C 47% 1.2 mph SE1.9 kmh SE 2.3 mph3.7 kmh 30.40 in1029.5 mb - 0.00 in0.0 mm 0.00 in0.0 mm
08:25 PM 53.3°F11.8°C 33.6°F0.9°C 47% 1.2 mph SE1.9 kmh SE 2.3 mph3.7 kmh 30.40 in1029.5 mb - 0.00 in0.0 mm 0.00 in0.0 mm
08:30 PM 53.1°F11.7°C 33.4°F0.8°C 47% 1.2 mph SE1.9 kmh SE 2.3 mph3.7 kmh 30.40 in1029.5 mb - 0.00 in0.0 mm 0.00 in0.0 mm
08:35 PM 53.0°F11.7°C 33.8°F1.0°C 48% 2.3 mph SE3.7 kmh SE 2.3 mph3.7 kmh 30.41 in1029.8 mb - 0.00 in0.0 mm 0.00 in0.0 mm
08:40 PM 52.8°F11.6°C 33.6°F0.9°C 48% 1.2 mph SE1.9 kmh SE 1.2 mph1.9 kmh 30.41 in1029.8 mb - 0.00 in0.0 mm 0.00 in0.0 mm
08:45 PM 52.7°F11.5°C 33.6°F0.9°C 48% Calm Calm 1.2 mph1.9 kmh 30.41 in1029.8 mb - 0.00 in0.0 mm 0.00 in0.0 mm
08:50 PM 52.7°F11.5°C 33.5°F0.8°C 48% Calm Calm -- 30.41 in1029.8 mb - 0.00 in0.0 mm 0.00 in0.0 mm
08:55 PM 52.6°F11.4°C 33.5°F0.8°C 48% Calm Calm -- 30.41 in1029.8 mb - 0.00 in0.0 mm 0.00 in0.0 mm
09:00 PM 52.6°F11.4°C 33.5°F0.8°C 48% Calm Calm 1.2 mph1.9 kmh 30.41 in1029.8 mb - 0.00 in0.0 mm 0.00 in0.0 mm
09:05 PM 52.5°F11.4°C 33.4°F0.8°C 48% Calm Calm -- 30.41 in1029.8 mb - 0.00 in0.0 mm 0.00 in0.0 mm
09:10 PM 52.4°F11.3°C 33.8°F1.0°C 49% 1.2 mph SE1.9 kmh SE 2.3 mph3.7 kmh 30.41 in1029.8 mb - 0.00 in0.0 mm 0.00 in0.0 mm
09:15 PM 52.3°F11.3°C 34.2°F1.2°C 50% 1.2 mph SE1.9 kmh SE 2.3 mph3.7 kmh 30.41 in1029.8 mb - 0.00 in0.0 mm 0.00 in0.0 mm
09:20 PM 52.0°F11.1°C 34.4°F1.3°C 51% 1.2 mph SE1.9 kmh SE 2.3 mph3.7 kmh 30.41 in1029.8 mb - 0.00 in0.0 mm 0.00 in0.0 mm
09:25 PM 51.7°F10.9°C 34.1°F1.2°C 51% 1.2 mph SE1.9 kmh SE 2.3 mph3.7 kmh 30.41 in1029.8 mb - 0.00 in0.0 mm 0.00 in0.0 mm
09:30 PM 51.1°F10.6°C 34.1°F1.2°C 52% 1.2 mph SE1.9 kmh SE 2.3 mph3.7 kmh 30.41 in1029.8 mb - 0.00 in0.0 mm 0.00 in0.0 mm
09:35 PM 50.8°F10.4°C 34.7°F1.5°C 54% 1.2 mph SE1.9 kmh SE 2.3 mph3.7 kmh 30.41 in1029.8 mb - 0.00 in0.0 mm 0.00 in0.0 mm
09:40 PM 50.4°F10.2°C 36.2°F2.3°C 58% 2.3 mph SE3.7 kmh SE 2.3 mph3.7 kmh 30.41 in1029.8 mb - 0.00 in0.0 mm 0.00 in0.0 mm
09:45 PM 50.0°F10.0°C 36.7°F2.6°C 60% 1.2 mph SE1.9 kmh SE 2.3 mph3.7 kmh 30.41 in1029.8 mb - 0.00 in0.0 mm 0.00 in0.0 mm
09:50 PM 49.6°F9.8°C 35.9°F2.2°C 59% 1.2 mph SE1.9 kmh SE 2.3 mph3.7 kmh 30.42 in1030.1 mb - 0.00 in0.0 mm 0.00 in0.0 mm
09:55 PM 49.3°F9.6°C 36.4°F2.4°C 61% 1.2 mph SE1.9 kmh SE 1.2 mph1.9 kmh 30.42 in1030.1 mb - 0.00 in0.0 mm 0.00 in0.0 mm
10:00 PM 49.2°F9.6°C 35.0°F1.7°C 58% 1.2 mph SE1.9 kmh SE 2.3 mph3.7 kmh 30.42 in1030.1 mb - 0.00 in0.0 mm 0.00 in0.0 mm
10:05 PM 49.0°F9.4°C 34.9°F1.6°C 58% 1.2 mph SE1.9 kmh SE 2.3 mph3.7 kmh 30.42 in1030.1 mb - 0.00 in0.0 mm 0.00 in0.0 mm
10:10 PM 48.9°F9.4°C 35.2°F1.8°C 59% 1.2 mph SE1.9 kmh SE 2.3 mph3.7 kmh 30.42 in1030.1 mb - 0.00 in0.0 mm 0.00 in0.0 mm
10:15 PM 48.8°F9.3°C 35.9°F2.2°C 61% 1.2 mph SE1.9 kmh SE 2.3 mph3.7 kmh 30.42 in1030.1 mb - 0.00 in0.0 mm 0.00 in0.0 mm
10:20 PM 48.6°F9.2°C 35.7°F2.1°C 61% 1.2 mph SE1.9 kmh SE 2.3 mph3.7 kmh 30.42 in1030.1 mb - 0.00 in0.0 mm 0.00 in0.0 mm
10:25 PM 48.5°F9.2°C 35.2°F1.8°C 60% 1.2 mph SE1.9 kmh SE 2.3 mph3.7 kmh 30.42 in1030.1 mb - 0.00 in0.0 mm 0.00 in0.0 mm
10:30 PM 48.3°F9.1°C 35.5°F1.9°C 61% 1.2 mph SE1.9 kmh SE 2.3 mph3.7 kmh 30.42 in1030.1 mb - 0.00 in0.0 mm 0.00 in0.0 mm
10:35 PM 48.2°F9.0°C 35.0°F1.7°C 60% 1.2 mph SE1.9 kmh SE 2.3 mph3.7 kmh 30.42 in1030.1 mb - 0.00 in0.0 mm 0.00 in0.0 mm
10:40 PM 48.1°F8.9°C 34.9°F1.6°C 60% 1.2 mph SE1.9 kmh SE 2.3 mph3.7 kmh 30.42 in1030.1 mb - 0.00 in0.0 mm 0.00 in0.0 mm
10:45 PM 48.1°F8.9°C 34.4°F1.3°C 59% 1.2 mph SE1.9 kmh SE 2.3 mph3.7 kmh 30.42 in1030.1 mb - 0.00 in0.0 mm 0.00 in0.0 mm
10:50 PM 48.0°F8.9°C 33.9°F1.1°C 58% 1.2 mph SE1.9 kmh SE 2.3 mph3.7 kmh 30.43 in1030.5 mb - 0.00 in0.0 mm 0.00 in0.0 mm
10:55 PM 47.9°F8.8°C 34.3°F1.3°C 59% 1.2 mph SE1.9 kmh SE 2.3 mph3.7 kmh 30.43 in1030.5 mb - 0.00 in0.0 mm 0.00 in0.0 mm
11:00 PM 47.7°F8.7°C 34.5°F1.4°C 60% 1.2 mph SE1.9 kmh SE 2.3 mph3.7 kmh 30.43 in1030.5 mb - 0.00 in0.0 mm 0.00 in0.0 mm
11:05 PM 47.6°F8.7°C 35.2°F1.8°C 62% 1.2 mph SE1.9 kmh SE 2.3 mph3.7 kmh 30.43 in1030.5 mb - 0.00 in0.0 mm 0.00 in0.0 mm
11:10 PM 47.6°F8.7°C 36.4°F2.4°C 65% 1.2 mph SE1.9 kmh SE 1.2 mph1.9 kmh 30.43 in1030.5 mb - 0.00 in0.0 mm 0.00 in0.0 mm
11:15 PM 47.5°F8.6°C 37.1°F2.8°C 67% 1.2 mph SE1.9 kmh SE 2.3 mph3.7 kmh 30.43 in1030.5 mb - 0.00 in0.0 mm 0.00 in0.0 mm
11:20 PM 47.4°F8.6°C 36.9°F2.7°C 67% 1.2 mph SE1.9 kmh SE 2.3 mph3.7 kmh 30.43 in1030.5 mb - 0.00 in0.0 mm 0.00 in0.0 mm
11:25 PM 47.2°F8.4°C 37.5°F3.1°C 69% 1.2 mph SE1.9 kmh SE 2.3 mph3.7 kmh 30.43 in1030.5 mb - 0.00 in0.0 mm 0.00 in0.0 mm
11:30 PM 46.8°F8.2°C 36.8°F2.7°C 68% 1.2 mph SE1.9 kmh SE 2.3 mph3.7 kmh 30.43 in1030.5 mb - 0.00 in0.0 mm 0.00 in0.0 mm
11:35 PM 46.5°F8.1°C 35.7°F2.1°C 66% 2.3 mph SE3.7 kmh SE 3.5 mph5.6 kmh 30.43 in1030.5 mb - 0.00 in0.0 mm 0.00 in0.0 mm
11:40 PM 46.3°F7.9°C 35.9°F2.2°C 67% 2.3 mph SE3.7 kmh SE 2.3 mph3.7 kmh 30.43 in1030.5 mb - 0.00 in0.0 mm 0.00 in0.0 mm
11:45 PM 46.1°F7.8°C 35.7°F2.1°C 67% 1.2 mph SE1.9 kmh SE 2.3 mph3.7 kmh 30.43 in1030.5 mb - 0.00 in0.0 mm 0.00 in0.0 mm
11:50 PM 46.0°F7.8°C 35.7°F2.1°C 67% 1.2 mph SE1.9 kmh SE 2.3 mph3.7 kmh 30.43 in1030.5 mb - 0.00 in0.0 mm 0.00 in0.0 mm
11:55 PM 45.8°F7.7°C 35.5°F1.9°C 67% 2.3 mph SE3.7 kmh SE 2.3 mph3.7 kmh 30.43 in1030.5 mb - 0.00 in0.0 mm 0.00 in0.0 mm